Time,TemperatureF,DewpointF,PressureIn,WindDirection,WindDirectionDegrees,WindSpeedMPH,WindSpeedGustMPH,Humidity,HourlyPrecipIn,Conditions,Clouds,dailyrainin,SoftwareType,DateUTC
2013-03-09 00:00:00,44.6,44.1,29.84,ESE,112,2.2,-999.0,98,-99.99,,,0.00,Acu-Link.com,2013-03-09 06:00:00,
2013-03-09 00:15:00,44.6,44.1,29.83,NE,45,1.1,-999.0,98,-99.99,,,0.00,Acu-Link.com,2013-03-09 06:15:00,
2013-03-09 00:30:00,44.6,44.1,29.83,ESE,112,0.0,-999.0,98,-99.99,,,0.00,Acu-Link.com,2013-03-09 06:30:00,
2013-03-09 00:45:00,44.6,44.1,29.83,East,90,1.7,-999.0,98,-99.99,,,0.00,Acu-Link.com,2013-03-09 06:45:00,
2013-03-09 01:00:00,44.4,43.9,29.82,ESE,112,2.2,-999.0,98,-99.99,,,0.01,Acu-Link.com,2013-03-09 07:00:00,
2013-03-09 01:16:00,44.2,43.7,29.82,ESE,112,2.2,-999.0,98,-99.99,,,0.01,Acu-Link.com,2013-03-09 07:16:00,
2013-03-09 01:31:00,43.9,43.4,29.81,ESE,112,1.7,-999.0,98,-99.99,,,0.01,Acu-Link.com,2013-03-09 07:31:00,
2013-03-09 01:46:00,43.9,43.4,29.80,ESE,112,2.7,-999.0,98,-99.99,,,0.01,Acu-Link.com,2013-03-09 07:46:00,
2013-03-09 02:01:00,43.9,43.4,29.79,NE,45,1.7,-999.0,98,-99.99,,,0.01,Acu-Link.com,2013-03-09 08:01:00,
2013-03-09 02:17:00,44.1,43.6,29.79,SE,135,2.2,-999.0,98,-99.99,,,0.01,Acu-Link.com,2013-03-09 08:17:00,
2013-03-09 02:32:00,44.2,43.7,29.77,ESE,112,2.2,-999.0,98,-99.99,,,0.01,Acu-Link.com,2013-03-09 08:32:00,
2013-03-09 02:47:00,44.4,43.9,29.76,ESE,112,2.2,-999.0,98,-99.99,,,0.01,Acu-Link.com,2013-03-09 08:47:00,
2013-03-09 03:02:00,44.6,44.1,29.74,NE,45,1.1,-999.0,98,-99.99,,,0.03,Acu-Link.com,2013-03-09 09:02:00,
2013-03-09 03:17:00,44.8,44.3,29.74,WSW,247,1.7,-999.0,98,-99.99,,,0.03,Acu-Link.com,2013-03-09 09:17:00,
2013-03-09 03:32:00,45.3,44.8,29.72,ESE,112,2.7,-999.0,98,-99.99,,,0.06,Acu-Link.com,2013-03-09 09:32:00,
2013-03-09 03:47:00,45.9,45.4,29.71,East,90,3.2,-999.0,98,-99.99,,,0.06,Acu-Link.com,2013-03-09 09:47:00,
2013-03-09 04:03:00,45.9,45.4,29.71,NE,45,0.0,-999.0,98,-99.99,,,0.06,Acu-Link.com,2013-03-09 10:03:00,
2013-03-09 04:18:00,45.9,45.4,29.71,ENE,67,1.7,-999.0,98,-99.99,,,0.06,Acu-Link.com,2013-03-09 10:18:00,
2013-03-09 04:33:00,46.6,46.1,29.71,South,180,1.1,-999.0,98,-99.99,,,0.06,Acu-Link.com,2013-03-09 10:33:00,
2013-03-09 04:48:00,46.6,46.1,29.70,ENE,67,1.1,-999.0,98,-99.99,,,0.06,Acu-Link.com,2013-03-09 10:48:00,
2013-03-09 05:04:00,46.0,45.5,29.70,ESE,112,0.0,-999.0,98,-99.99,,,0.06,Acu-Link.com,2013-03-09 11:04:00,
2013-03-09 05:19:00,45.5,45.0,29.68,NE,45,2.7,-999.0,98,-99.99,,,0.06,Acu-Link.com,2013-03-09 11:19:00,
2013-03-09 05:34:00,45.3,44.8,29.69,South,180,0.0,-999.0,98,-99.99,,,0.06,Acu-Link.com,2013-03-09 11:34:00,
2013-03-09 05:49:00,45.0,44.5,29.69,NNE,22,2.2,-999.0,98,-99.99,,,0.06,Acu-Link.com,2013-03-09 11:49:00,
2013-03-09 06:04:00,45.0,44.5,29.68,East,90,3.7,-999.0,98,-99.99,,,0.06,Acu-Link.com,2013-03-09 12:04:00,
2013-03-09 06:20:00,45.0,44.5,29.67,East,90,0.0,-999.0,98,-99.99,,,0.06,Acu-Link.com,2013-03-09 12:20:00,
2013-03-09 06:35:00,45.1,44.6,29.65,ESE,112,1.7,-999.0,98,-99.99,,,0.06,Acu-Link.com,2013-03-09 12:35:00,
2013-03-09 06:50:00,46.6,46.1,29.64,ESE,112,3.7,-999.0,98,-99.99,,,0.06,Acu-Link.com,2013-03-09 12:50:00,
2013-03-09 07:05:00,50.0,47.5,29.62,SSE,157,2.2,-999.0,91,-99.99,,,0.06,Acu-Link.com,2013-03-09 13:05:00,
2013-03-09 07:20:00,48.6,45.8,29.61,ESE,112,2.2,-999.0,90,-99.99,,,0.06,Acu-Link.com,2013-03-09 13:20:00,
2013-03-09 07:36:00,47.8,45.9,29.60,NE,45,0.0,-999.0,93,-99.99,,,0.06,Acu-Link.com,2013-03-09 13:36:00,
2013-03-09 07:51:00,48.0,46.1,29.60,SE,135,2.7,-999.0,93,-99.99,,,0.06,Acu-Link.com,2013-03-09 13:51:00,
2013-03-09 08:06:00,48.4,45.9,29.61,NE,45,2.7,-999.0,91,-99.99,,,0.06,Acu-Link.com,2013-03-09 14:06:00,
2013-03-09 08:21:00,49.1,46.0,29.58,NNE,22,3.7,-999.0,89,-99.99,,,0.06,Acu-Link.com,2013-03-09 14:21:00,
2013-03-09 08:36:00,50.0,46.3,29.59,SSE,157,2.7,-999.0,87,-99.99,,,0.06,Acu-Link.com,2013-03-09 14:36:00,
2013-03-09 08:52:00,51.3,47.3,29.59,SW,225,2.2,-999.0,86,-99.99,,,0.06,Acu-Link.com,2013-03-09 14:52:00,
2013-03-09 09:07:00,52.0,47.6,29.58,ESE,112,4.7,-999.0,85,-99.99,,,0.06,Acu-Link.com,2013-03-09 15:07:00,
2013-03-09 09:22:00,52.3,48.2,29.56,East,90,3.2,-999.0,86,-99.99,,,0.06,Acu-Link.com,2013-03-09 15:22:00,
2013-03-09 09:37:00,53.1,49.3,29.57,SSE,157,4.2,-999.0,87,-99.99,,,0.06,Acu-Link.com,2013-03-09 15:37:00,
2013-03-09 09:53:00,54.0,50.5,29.56,West,270,2.7,-999.0,88,-99.99,,,0.06,Acu-Link.com,2013-03-09 15:53:00,
2013-03-09 10:08:00,55.0,51.2,29.56,North,0,1.1,-999.0,87,-99.99,,,0.06,Acu-Link.com,2013-03-09 16:08:00,
2013-03-09 10:23:00,55.9,52.1,29.56,West,270,2.2,-999.0,87,-99.99,,,0.06,Acu-Link.com,2013-03-09 16:23:00,
2013-03-09 10:39:00,56.1,51.3,29.57,West,270,1.1,-999.0,84,-99.99,,,0.06,Acu-Link.com,2013-03-09 16:39:00,
2013-03-09 10:54:00,57.9,52.8,29.56,WNW,292,1.7,-999.0,83,-99.99,,,0.06,Acu-Link.com,2013-03-09 16:54:00,
2013-03-09 11:09:00,57.7,53.2,29.56,SSE,157,3.2,-999.0,85,-99.99,,,0.06,Acu-Link.com,2013-03-09 17:09:00,
2013-03-09 11:24:00,58.5,53.4,29.57,SSW,202,2.2,-999.0,83,-99.99,,,0.06,Acu-Link.com,2013-03-09 17:24:00,
2013-03-09 11:39:00,57.7,53.5,29.57,East,90,4.7,-999.0,86,-99.99,,,0.06,Acu-Link.com,2013-03-09 17:39:00,
2013-03-09 11:54:00,58.1,53.9,29.55,SSE,157,2.7,-999.0,86,-99.99,,,0.06,Acu-Link.com,2013-03-09 17:54:00,
2013-03-09 12:11:00,58.1,53.6,29.56,South,180,8.3,-999.0,85,-99.99,,,0.06,Acu-Link.com,2013-03-09 18:11:00,
2013-03-09 12:26:00,57.9,53.4,29.54,ESE,112,4.2,-999.0,85,-99.99,,,0.06,Acu-Link.com,2013-03-09 18:26:00,
2013-03-09 12:41:00,58.8,54.0,29.55,SSE,157,3.7,-999.0,84,-99.99,,,0.06,Acu-Link.com,2013-03-09 18:41:00,
2013-03-09 12:57:00,58.5,53.7,29.53,ESE,112,5.8,-999.0,84,-99.99,,,0.06,Acu-Link.com,2013-03-09 18:57:00,
2013-03-09 13:12:00,58.5,53.7,29.53,SSE,157,4.7,-999.0,84,-99.99,,,0.06,Acu-Link.com,2013-03-09 19:12:00,
2013-03-09 13:27:00,58.6,53.8,29.53,SSW,202,5.3,-999.0,84,-99.99,,,0.06,Acu-Link.com,2013-03-09 19:27:00,
2013-03-09 13:42:00,59.5,54.3,29.50,SW,225,6.3,-999.0,83,-99.99,,,0.06,Acu-Link.com,2013-03-09 19:42:00,
2013-03-09 13:57:00,59.2,54.0,29.50,SE,135,8.3,-999.0,83,-99.99,,,0.06,Acu-Link.com,2013-03-09 19:57:00,
2013-03-09 14:13:00,58.8,53.6,29.50,SE,135,6.8,-999.0,83,-99.99,,,0.06,Acu-Link.com,2013-03-09 20:13:00,
2013-03-09 14:28:00,58.5,53.7,29.52,South,180,5.8,-999.0,84,-99.99,,,0.06,Acu-Link.com,2013-03-09 20:28:00,
2013-03-09 14:43:00,58.3,53.8,29.52,South,180,3.2,-999.0,85,-99.99,,,0.06,Acu-Link.com,2013-03-09 20:43:00,
2013-03-09 14:58:00,57.4,53.6,29.54,SW,225,9.9,-999.0,87,-99.99,,,0.06,Acu-Link.com,2013-03-09 20:58:00,
2013-03-09 15:13:00,56.3,53.4,29.48,NNE,22,8.9,-999.0,90,-99.99,,,0.06,Acu-Link.com,2013-03-09 21:13:00,
2013-03-09 15:29:00,56.1,53.8,29.47,ESE,112,6.3,-999.0,92,-99.99,,,0.06,Acu-Link.com,2013-03-09 21:29:00,
2013-03-09 15:44:00,57.9,54.7,29.46,ESE,112,4.7,-999.0,89,-99.99,,,0.06,Acu-Link.com,2013-03-09 21:44:00,
2013-03-09 15:59:00,58.1,54.9,29.46,SSW,202,8.3,-999.0,89,-99.99,,,0.06,Acu-Link.com,2013-03-09 21:59:00,
2013-03-09 16:15:00,60.6,56.1,29.46,North,0,6.8,-999.0,85,-99.99,,,0.06,Acu-Link.com,2013-03-09 22:15:00,
2013-03-09 16:30:00,60.6,55.1,29.45,South,180,4.7,-999.0,82,-99.99,,,0.06,Acu-Link.com,2013-03-09 22:30:00,
2013-03-09 16:45:00,60.1,55.2,29.45,SSE,157,5.8,-999.0,84,-99.99,,,0.06,Acu-Link.com,2013-03-09 22:45:00,
2013-03-09 17:00:00,59.4,54.6,29.46,South,180,7.3,-999.0,84,-99.99,,,0.06,Acu-Link.com,2013-03-09 23:00:00,
2013-03-09 17:15:00,59.9,55.4,29.48,ESE,112,4.2,-999.0,85,-99.99,,,0.06,Acu-Link.com,2013-03-09 23:15:00,
2013-03-09 17:37:00,60.1,54.9,29.47,South,180,2.2,-999.0,83,-99.99,,,0.06,Acu-Link.com,2013-03-09 23:37:00,
2013-03-09 17:59:00,59.0,54.5,29.49,South,180,4.7,-999.0,85,-99.99,,,0.06,Acu-Link.com,2013-03-09 23:59:00,
2013-03-09 18:14:00,58.6,54.4,29.51,East,90,0.0,-999.0,86,-99.99,,,0.06,Acu-Link.com,2013-03-10 00:14:00,
2013-03-09 18:29:00,58.1,54.2,29.52,ESE,112,3.2,-999.0,87,-99.99,,,0.06,Acu-Link.com,2013-03-10 00:29:00,
2013-03-09 18:44:00,57.7,53.9,29.52,NNE,22,0.0,-999.0,87,-99.99,,,0.06,Acu-Link.com,2013-03-10 00:44:00,
2013-03-09 18:59:00,57.2,54.0,29.53,NNE,22,1.1,-999.0,89,-99.99,,,0.06,Acu-Link.com,2013-03-10 00:59:00,
2013-03-09 19:15:00,49.5,44.6,29.55,South,180,8.3,-999.0,83,-99.99,,,0.06,Acu-Link.com,2013-03-10 01:15:00,
2013-03-09 19:30:00,44.2,41.2,29.56,East,90,6.3,-999.0,89,-99.99,,,0.06,Acu-Link.com,2013-03-10 01:30:00,
2013-03-09 19:45:00,41.5,39.1,29.56,SSE,157,5.8,-999.0,91,-99.99,,,0.06,Acu-Link.com,2013-03-10 01:45:00,
2013-03-09 20:27:00,41.2,38.8,29.59,ESE,112,5.8,-999.0,91,-99.99,,,0.06,Acu-Link.com,2013-03-10 02:27:00,
2013-03-09 21:05:00,37.8,36.0,29.62,ESE,112,8.3,-999.0,93,-99.99,,,0.06,Acu-Link.com,2013-03-10 03:05:00,
2013-03-09 21:20:00,36.9,35.1,29.63,NW,315,5.3,-999.0,93,-99.99,,,0.06,Acu-Link.com,2013-03-10 03:20:00,
2013-03-09 21:35:00,36.5,35.5,29.68,South,180,5.3,-999.0,96,-99.99,,,0.06,Acu-Link.com,2013-03-10 03:35:00,
2013-03-09 21:50:00,36.0,35.5,29.66,South,180,3.2,-999.0,98,-99.99,,,0.07,Acu-Link.com,2013-03-10 03:50:00,
2013-03-09 22:05:00,35.6,35.1,29.64,NE,45,7.8,-999.0,98,-99.99,,,0.08,Acu-Link.com,2013-03-10 04:05:00,
2013-03-09 22:21:00,35.1,34.6,29.64,SSW,202,4.2,-999.0,98,-99.99,,,0.10,Acu-Link.com,2013-03-10 04:21:00,
2013-03-09 22:36:00,35.1,34.6,29.64,NNE,22,15.0,-999.0,98,-99.99,,,0.10,Acu-Link.com,2013-03-10 04:36:00,
2013-03-09 22:51:00,35.1,34.6,29.66,NNE,22,8.3,-999.0,98,-99.99,,,0.10,Acu-Link.com,2013-03-10 04:51:00,
2013-03-09 23:06:00,34.9,34.4,29.65,ESE,112,6.3,-999.0,98,-99.99,,,0.10,Acu-Link.com,2013-03-10 05:06:00,
2013-03-09 23:21:00,34.9,34.4,29.66,East,90,3.7,-999.0,98,-99.99,,,0.10,Acu-Link.com,2013-03-10 05:21:00,
2013-03-09 23:37:00,34.5,34.0,29.65,NNE,22,4.2,-999.0,98,-99.99,,,0.10,Acu-Link.com,2013-03-10 05:37:00,
2013-03-09 23:52:00,34.5,34.0,29.66,South,180,5.3,-999.0,98,-99.99,,,0.10,Acu-Link.com,2013-03-10 05:52:00,